sensor_id;sensor_type;location;lat;lon;timestamp;temperature;humidity
48551;DHT22;34397;51.176;6.738;2024-01-30T00:01:35;8.70;72.30
48551;DHT22;34397;51.176;6.738;2024-01-30T00:04:07;8.70;72.40
48551;DHT22;34397;51.176;6.738;2024-01-30T00:06:39;8.70;72.40
48551;DHT22;34397;51.176;6.738;2024-01-30T00:09:11;8.70;72.40
48551;DHT22;34397;51.176;6.738;2024-01-30T00:11:43;8.70;72.30
48551;DHT22;34397;51.176;6.738;2024-01-30T00:14:16;8.70;71.80
48551;DHT22;34397;51.176;6.738;2024-01-30T00:16:50;8.70;72.00
48551;DHT22;34397;51.176;6.738;2024-01-30T00:19:22;8.70;72.20
48551;DHT22;34397;51.176;6.738;2024-01-30T00:21:54;8.70;72.20
48551;DHT22;34397;51.176;6.738;2024-01-30T00:24:25;8.70;72.20
48551;DHT22;34397;51.176;6.738;2024-01-30T00:26:57;8.60;72.30
48551;DHT22;34397;51.176;6.738;2024-01-30T00:29:29;8.60;72.30
48551;DHT22;34397;51.176;6.738;2024-01-30T00:32:06;8.60;73.00
48551;DHT22;34397;51.176;6.738;2024-01-30T00:34:38;8.50;72.50
48551;DHT22;34397;51.176;6.738;2024-01-30T00:37:10;8.60;72.50
48551;DHT22;34397;51.176;6.738;2024-01-30T00:39:42;8.50;72.50
48551;DHT22;34397;51.176;6.738;2024-01-30T00:42:14;8.50;72.60
48551;DHT22;34397;51.176;6.738;2024-01-30T00:44:46;8.50;72.60
48551;DHT22;34397;51.176;6.738;2024-01-30T00:47:19;8.50;72.70
48551;DHT22;34397;51.176;6.738;2024-01-30T00:49:51;8.40;72.70
48551;DHT22;34397;51.176;6.738;2024-01-30T00:52:23;8.40;72.70
48551;DHT22;34397;51.176;6.738;2024-01-30T00:54:55;8.40;72.70
48551;DHT22;34397;51.176;6.738;2024-01-30T00:57:26;8.30;72.80
48551;DHT22;34397;51.176;6.738;2024-01-30T00:59:58;8.30;72.80
48551;DHT22;34397;51.176;6.738;2024-01-30T01:02:31;8.30;72.70
48551;DHT22;34397;51.176;6.738;2024-01-30T01:05:03;8.30;72.70
48551;DHT22;34397;51.176;6.738;2024-01-30T01:07:36;8.20;72.70
48551;DHT22;34397;51.176;6.738;2024-01-30T01:10:07;8.20;72.90
48551;DHT22;34397;51.176;6.738;2024-01-30T01:12:41;8.20;72.80
48551;DHT22;34397;51.176;6.738;2024-01-30T01:15:13;8.20;72.90
48551;DHT22;34397;51.176;6.738;2024-01-30T01:17:47;8.10;73.00
48551;DHT22;34397;51.176;6.738;2024-01-30T01:20:19;8.20;73.20
48551;DHT22;34397;51.176;6.738;2024-01-30T01:22:51;8.10;73.20
48551;DHT22;34397;51.176;6.738;2024-01-30T01:25:24;8.10;73.30
48551;DHT22;34397;51.176;6.738;2024-01-30T01:27:56;8.10;73.40
48551;DHT22;34397;51.176;6.738;2024-01-30T01:30:28;8.10;73.40
48551;DHT22;34397;51.176;6.738;2024-01-30T01:33:02;8.10;73.50
48551;DHT22;34397;51.176;6.738;2024-01-30T01:35:34;8.10;73.60
48551;DHT22;34397;51.176;6.738;2024-01-30T01:38:06;8.00;73.50
48551;DHT22;34397;51.176;6.738;2024-01-30T01:40:38;8.10;74.10
48551;DHT22;34397;51.176;6.738;2024-01-30T01:43:11;8.00;73.70
48551;DHT22;34397;51.176;6.738;2024-01-30T01:45:43;8.00;73.70
48551;DHT22;34397;51.176;6.738;2024-01-30T01:48:16;8.00;73.60
48551;DHT22;34397;51.176;6.738;2024-01-30T01:50:48;8.00;73.80
48551;DHT22;34397;51.176;6.738;2024-01-30T01:53:20;8.00;73.80
48551;DHT22;34397;51.176;6.738;2024-01-30T01:55:52;8.00;73.90
48551;DHT22;34397;51.176;6.738;2024-01-30T01:58:26;8.00;73.90
48551;DHT22;34397;51.176;6.738;2024-01-30T02:01:00;7.90;73.90
48551;DHT22;34397;51.176;6.738;2024-01-30T02:03:34;7.90;73.90
48551;DHT22;34397;51.176;6.738;2024-01-30T02:06:06;7.90;73.90
48551;DHT22;34397;51.176;6.738;2024-01-30T02:08:38;7.90;73.90
48551;DHT22;34397;51.176;6.738;2024-01-30T02:11:10;7.90;73.90
48551;DHT22;34397;51.176;6.738;2024-01-30T02:13:43;7.90;73.60
48551;DHT22;34397;51.176;6.738;2024-01-30T02:16:15;7.90;74.20
48551;DHT22;34397;51.176;6.738;2024-01-30T02:18:48;7.90;73.90
48551;DHT22;34397;51.176;6.738;2024-01-30T02:21:22;7.90;74.10
48551;DHT22;34397;51.176;6.738;2024-01-30T02:23:54;7.90;74.20
48551;DHT22;34397;51.176;6.738;2024-01-30T02:26:27;7.80;74.30
48551;DHT22;34397;51.176;6.738;2024-01-30T02:28:59;7.80;74.40
48551;DHT22;34397;51.176;6.738;2024-01-30T02:31:30;7.80;74.30
48551;DHT22;34397;51.176;6.738;2024-01-30T02:34:02;7.80;74.30
48551;DHT22;34397;51.176;6.738;2024-01-30T02:36:35;7.80;74.30
48551;DHT22;34397;51.176;6.738;2024-01-30T02:39:07;7.80;74.40
48551;DHT22;34397;51.176;6.738;2024-01-30T02:41:39;7.80;74.40
48551;DHT22;34397;51.176;6.738;2024-01-30T02:44:11;7.80;74.40
48551;DHT22;34397;51.176;6.738;2024-01-30T02:46:43;7.80;74.40
48551;DHT22;34397;51.176;6.738;2024-01-30T02:49:14;7.80;74.50
48551;DHT22;34397;51.176;6.738;2024-01-30T02:51:48;7.80;74.50
48551;DHT22;34397;51.176;6.738;2024-01-30T02:54:20;7.80;74.70
48551;DHT22;34397;51.176;6.738;2024-01-30T02:56:51;7.80;74.60
48551;DHT22;34397;51.176;6.738;2024-01-30T02:59:23;7.80;74.70
48551;DHT22;34397;51.176;6.738;2024-01-30T03:01:55;7.80;74.80
48551;DHT22;34397;51.176;6.738;2024-01-30T03:04:27;7.80;74.70
48551;DHT22;34397;51.176;6.738;2024-01-30T03:07:01;7.80;74.70
48551;DHT22;34397;51.176;6.738;2024-01-30T03:09:34;7.80;74.90
48551;DHT22;34397;51.176;6.738;2024-01-30T03:12:06;7.80;74.80
48551;DHT22;34397;51.176;6.738;2024-01-30T03:14:38;7.80;74.90
48551;DHT22;34397;51.176;6.738;2024-01-30T03:17:10;7.80;74.90
48551;DHT22;34397;51.176;6.738;2024-01-30T03:19:41;7.80;74.90
48551;DHT22;34397;51.176;6.738;2024-01-30T03:22:14;7.80;74.90
48551;DHT22;34397;51.176;6.738;2024-01-30T03:24:47;7.80;75.00
48551;DHT22;34397;51.176;6.738;2024-01-30T03:27:18;7.80;75.00
48551;DHT22;34397;51.176;6.738;2024-01-30T03:29:50;7.80;74.90
48551;DHT22;34397;51.176;6.738;2024-01-30T03:32:22;7.80;75.00
48551;DHT22;34397;51.176;6.738;2024-01-30T03:34:54;7.90;74.90
48551;DHT22;34397;51.176;6.738;2024-01-30T03:37:27;7.90;75.20
48551;DHT22;34397;51.176;6.738;2024-01-30T03:39:59;7.80;75.30
48551;DHT22;34397;51.176;6.738;2024-01-30T03:42:31;7.80;75.10
48551;DHT22;34397;51.176;6.738;2024-01-30T03:45:03;7.80;75.10
48551;DHT22;34397;51.176;6.738;2024-01-30T03:47:36;7.80;75.20
48551;DHT22;34397;51.176;6.738;2024-01-30T03:50:08;7.80;75.70
48551;DHT22;34397;51.176;6.738;2024-01-30T03:52:41;7.90;75.10
48551;DHT22;34397;51.176;6.738;2024-01-30T03:55:13;7.80;75.10
48551;DHT22;34397;51.176;6.738;2024-01-30T03:57:45;7.80;75.10
48551;DHT22;34397;51.176;6.738;2024-01-30T04:00:17;7.80;75.00
48551;DHT22;34397;51.176;6.738;2024-01-30T04:02:49;7.80;75.10
48551;DHT22;34397;51.176;6.738;2024-01-30T04:05:22;7.80;75.10
48551;DHT22;34397;51.176;6.738;2024-01-30T04:07:55;7.80;75.00
48551;DHT22;34397;51.176;6.738;2024-01-30T04:10:27;7.70;75.10
48551;DHT22;34397;51.176;6.738;2024-01-30T04:12:59;7.70;75.10
48551;DHT22;34397;51.176;6.738;2024-01-30T04:15:31;7.70;75.00
48551;DHT22;34397;51.176;6.738;2024-01-30T04:18:03;7.70;74.90
48551;DHT22;34397;51.176;6.738;2024-01-30T04:20:35;7.70;74.90
48551;DHT22;34397;51.176;6.738;2024-01-30T04:23:08;7.70;74.80
48551;DHT22;34397;51.176;6.738;2024-01-30T04:25:40;7.70;75.00
48551;DHT22;34397;51.176;6.738;2024-01-30T04:28:12;7.70;75.00
48551;DHT22;34397;51.176;6.738;2024-01-30T04:30:44;7.70;75.10
48551;DHT22;34397;51.176;6.738;2024-01-30T04:33:16;7.70;75.20
48551;DHT22;34397;51.176;6.738;2024-01-30T04:35:48;7.70;75.20
48551;DHT22;34397;51.176;6.738;2024-01-30T04:38:21;7.70;74.80
48551;DHT22;34397;51.176;6.738;2024-01-30T04:40:53;7.70;75.10
48551;DHT22;34397;51.176;6.738;2024-01-30T04:43:25;7.70;75.30
48551;DHT22;34397;51.176;6.738;2024-01-30T04:45:57;7.60;75.30
48551;DHT22;34397;51.176;6.738;2024-01-30T04:48:29;7.60;75.30
48551;DHT22;34397;51.176;6.738;2024-01-30T04:51:01;7.60;75.40
48551;DHT22;34397;51.176;6.738;2024-01-30T04:53:36;7.60;75.50
48551;DHT22;34397;51.176;6.738;2024-01-30T04:56:07;7.60;75.70
48551;DHT22;34397;51.176;6.738;2024-01-30T04:58:39;7.60;75.60
48551;DHT22;34397;51.176;6.738;2024-01-30T05:01:15;7.60;75.60
48551;DHT22;34397;51.176;6.738;2024-01-30T05:03:47;7.70;75.80
48551;DHT22;34397;51.176;6.738;2024-01-30T05:06:24;7.70;75.70
48551;DHT22;34397;51.176;6.738;2024-01-30T05:08:58;7.70;75.70
48551;DHT22;34397;51.176;6.738;2024-01-30T05:11:29;7.70;75.70
48551;DHT22;34397;51.176;6.738;2024-01-30T05:14:01;7.70;75.60
48551;DHT22;34397;51.176;6.738;2024-01-30T05:16:33;7.70;75.60
48551;DHT22;34397;51.176;6.738;2024-01-30T05:19:05;7.80;75.60
48551;DHT22;34397;51.176;6.738;2024-01-30T05:21:37;7.80;75.60
48551;DHT22;34397;51.176;6.738;2024-01-30T05:24:10;7.80;75.50
48551;DHT22;34397;51.176;6.738;2024-01-30T05:26:43;7.80;75.50
48551;DHT22;34397;51.176;6.738;2024-01-30T05:29:15;7.80;75.50
48551;DHT22;34397;51.176;6.738;2024-01-30T05:31:46;7.80;75.40
48551;DHT22;34397;51.176;6.738;2024-01-30T05:34:18;7.80;75.40
48551;DHT22;34397;51.176;6.738;2024-01-30T05:36:50;7.80;75.40
48551;DHT22;34397;51.176;6.738;2024-01-30T05:39:24;7.80;75.30
48551;DHT22;34397;51.176;6.738;2024-01-30T05:41:55;7.80;75.40
48551;DHT22;34397;51.176;6.738;2024-01-30T05:44:27;7.80;75.40
48551;DHT22;34397;51.176;6.738;2024-01-30T05:46:59;7.80;75.40
48551;DHT22;34397;51.176;6.738;2024-01-30T05:49:31;7.80;75.40
48551;DHT22;34397;51.176;6.738;2024-01-30T05:52:03;7.70;75.40
48551;DHT22;34397;51.176;6.738;2024-01-30T05:54:37;7.70;75.40
48551;DHT22;34397;51.176;6.738;2024-01-30T05:57:09;7.70;75.50
48551;DHT22;34397;51.176;6.738;2024-01-30T05:59:41;7.70;75.40
48551;DHT22;34397;51.176;6.738;2024-01-30T06:02:14;7.70;75.50
48551;DHT22;34397;51.176;6.738;2024-01-30T06:04:46;7.70;75.50
48551;DHT22;34397;51.176;6.738;2024-01-30T06:07:18;7.70;75.60
48551;DHT22;34397;51.176;6.738;2024-01-30T06:09:51;7.70;76.30
48551;DHT22;34397;51.176;6.738;2024-01-30T06:12:23;7.70;75.60
48551;DHT22;34397;51.176;6.738;2024-01-30T06:14:55;7.60;75.60
48551;DHT22;34397;51.176;6.738;2024-01-30T06:17:27;7.60;75.60
48551;DHT22;34397;51.176;6.738;2024-01-30T06:19:59;7.60;75.70
48551;DHT22;34397;51.176;6.738;2024-01-30T06:22:31;7.60;75.80
48551;DHT22;34397;51.176;6.738;2024-01-30T06:25:05;7.60;75.80
48551;DHT22;34397;51.176;6.738;2024-01-30T06:27:37;7.60;75.90
48551;DHT22;34397;51.176;6.738;2024-01-30T06:30:10;7.60;75.90
48551;DHT22;34397;51.176;6.738;2024-01-30T06:32:42;7.60;75.90
48551;DHT22;34397;51.176;6.738;2024-01-30T06:35:14;7.60;75.90
48551;DHT22;34397;51.176;6.738;2024-01-30T06:37:48;7.60;76.00
48551;DHT22;34397;51.176;6.738;2024-01-30T06:40:21;7.60;76.00
48551;DHT22;34397;51.176;6.738;2024-01-30T06:42:53;7.60;76.10
48551;DHT22;34397;51.176;6.738;2024-01-30T06:45:25;7.60;76.10
48551;DHT22;34397;51.176;6.738;2024-01-30T06:47:57;7.60;76.10
48551;DHT22;34397;51.176;6.738;2024-01-30T06:50:29;7.60;76.20
48551;DHT22;34397;51.176;6.738;2024-01-30T06:53:01;7.60;76.20
48551;DHT22;34397;51.176;6.738;2024-01-30T06:55:34;7.60;76.30
48551;DHT22;34397;51.176;6.738;2024-01-30T06:58:06;7.60;76.40
48551;DHT22;34397;51.176;6.738;2024-01-30T07:00:38;7.60;76.40
48551;DHT22;34397;51.176;6.738;2024-01-30T07:03:10;7.60;76.40
48551;DHT22;34397;51.176;6.738;2024-01-30T07:05:42;7.60;76.50
48551;DHT22;34397;51.176;6.738;2024-01-30T07:08:14;7.60;76.50
48551;DHT22;34397;51.176;6.738;2024-01-30T07:10:49;7.60;76.40
48551;DHT22;34397;51.176;6.738;2024-01-30T07:13:21;7.60;76.40
48551;DHT22;34397;51.176;6.738;2024-01-30T07:15:52;7.60;76.30
48551;DHT22;34397;51.176;6.738;2024-01-30T07:18:24;7.60;76.30
48551;DHT22;34397;51.176;6.738;2024-01-30T07:20:56;7.60;76.30
48551;DHT22;34397;51.176;6.738;2024-01-30T07:23:28;7.70;76.40
48551;DHT22;34397;51.176;6.738;2024-01-30T07:26:02;7.60;76.40
48551;DHT22;34397;51.176;6.738;2024-01-30T07:28:35;7.60;76.50
48551;DHT22;34397;51.176;6.738;2024-01-30T07:31:07;7.60;76.30
48551;DHT22;34397;51.176;6.738;2024-01-30T07:33:38;7.60;76.20
48551;DHT22;34397;51.176;6.738;2024-01-30T07:36:10;7.60;76.80
48551;DHT22;34397;51.176;6.738;2024-01-30T07:38:43;7.70;76.30
48551;DHT22;34397;51.176;6.738;2024-01-30T07:41:16;7.70;76.30
48551;DHT22;34397;51.176;6.738;2024-01-30T07:43:48;7.70;76.40
48551;DHT22;34397;51.176;6.738;2024-01-30T07:46:20;7.70;76.30
48551;DHT22;34397;51.176;6.738;2024-01-30T07:48:52;7.70;76.30
48551;DHT22;34397;51.176;6.738;2024-01-30T07:51:26;7.70;76.40
48551;DHT22;34397;51.176;6.738;2024-01-30T07:53:58;7.70;76.40
48551;DHT22;34397;51.176;6.738;2024-01-30T07:56:32;7.70;76.30
48551;DHT22;34397;51.176;6.738;2024-01-30T07:59:04;7.70;76.40
48551;DHT22;34397;51.176;6.738;2024-01-30T08:01:35;7.70;76.30
48551;DHT22;34397;51.176;6.738;2024-01-30T08:04:07;7.70;76.30
48551;DHT22;34397;51.176;6.738;2024-01-30T08:06:39;7.80;76.40
48551;DHT22;34397;51.176;6.738;2024-01-30T08:09:11;7.80;76.30
48551;DHT22;34397;51.176;6.738;2024-01-30T08:11:45;7.80;76.20
48551;DHT22;34397;51.176;6.738;2024-01-30T08:14:17;7.80;76.30
48551;DHT22;34397;51.176;6.738;2024-01-30T08:16:48;7.80;76.20
48551;DHT22;34397;51.176;6.738;2024-01-30T08:19:20;7.80;76.30
48551;DHT22;34397;51.176;6.738;2024-01-30T08:21:52;7.90;76.40
48551;DHT22;34397;51.176;6.738;2024-01-30T08:24:24;7.90;76.50
48551;DHT22;34397;51.176;6.738;2024-01-30T08:26:57;7.90;76.70
48551;DHT22;34397;51.176;6.738;2024-01-30T08:29:29;7.90;76.80
48551;DHT22;34397;51.176;6.738;2024-01-30T08:32:02;7.90;76.70
48551;DHT22;34397;51.176;6.738;2024-01-30T08:34:34;7.90;76.80
48551;DHT22;34397;51.176;6.738;2024-01-30T08:37:06;8.00;76.80
48551;DHT22;34397;51.176;6.738;2024-01-30T08:39:38;8.00;76.90
48551;DHT22;34397;51.176;6.738;2024-01-30T08:42:11;8.00;76.90
48551;DHT22;34397;51.176;6.738;2024-01-30T08:44:43;8.10;77.00
48551;DHT22;34397;51.176;6.738;2024-01-30T08:47:15;8.10;77.00
48551;DHT22;34397;51.176;6.738;2024-01-30T08:49:48;8.10;77.00
48551;DHT22;34397;51.176;6.738;2024-01-30T08:52:20;8.20;77.00
48551;DHT22;34397;51.176;6.738;2024-01-30T08:54:52;8.20;77.00
48551;DHT22;34397;51.176;6.738;2024-01-30T08:57:26;8.20;77.00
48551;DHT22;34397;51.176;6.738;2024-01-30T08:59:59;8.20;77.00
48551;DHT22;34397;51.176;6.738;2024-01-30T09:02:31;8.20;76.90
48551;DHT22;34397;51.176;6.738;2024-01-30T09:05:03;8.30;76.90
48551;DHT22;34397;51.176;6.738;2024-01-30T09:07:35;8.30;76.80
48551;DHT22;34397;51.176;6.738;2024-01-30T09:10:07;8.30;76.90
48551;DHT22;34397;51.176;6.738;2024-01-30T09:12:41;8.40;76.90
48551;DHT22;34397;51.176;6.738;2024-01-30T09:15:13;8.40;76.60
48551;DHT22;34397;51.176;6.738;2024-01-30T09:17:45;8.40;77.00
48551;DHT22;34397;51.176;6.738;2024-01-30T09:20:16;8.40;76.40
48551;DHT22;34397;51.176;6.738;2024-01-30T09:22:50;8.50;76.50
48551;DHT22;34397;51.176;6.738;2024-01-30T09:25:22;8.50;76.40
48551;DHT22;34397;51.176;6.738;2024-01-30T09:27:55;8.50;76.40
48551;DHT22;34397;51.176;6.738;2024-01-30T09:30:27;8.60;76.20
48551;DHT22;34397;51.176;6.738;2024-01-30T09:32:59;8.60;76.20
48551;DHT22;34397;51.176;6.738;2024-01-30T09:35:31;8.70;76.10
48551;DHT22;34397;51.176;6.738;2024-01-30T09:38:04;8.70;75.90
48551;DHT22;34397;51.176;6.738;2024-01-30T09:40:36;8.70;75.70
48551;DHT22;34397;51.176;6.738;2024-01-30T09:43:13;8.80;75.70
48551;DHT22;34397;51.176;6.738;2024-01-30T09:45:49;8.80;75.80
48551;DHT22;34397;51.176;6.738;2024-01-30T09:48:21;8.80;75.60
48551;DHT22;34397;51.176;6.738;2024-01-30T09:50:54;8.90;75.50
48551;DHT22;34397;51.176;6.738;2024-01-30T09:53:26;8.90;75.60
48551;DHT22;34397;51.176;6.738;2024-01-30T09:55:58;8.90;75.50
48551;DHT22;34397;51.176;6.738;2024-01-30T09:58:31;9.00;75.60
48551;DHT22;34397;51.176;6.738;2024-01-30T10:01:04;9.00;75.60
48551;DHT22;34397;51.176;6.738;2024-01-30T10:03:35;9.10;75.60
48551;DHT22;34397;51.176;6.738;2024-01-30T10:06:08;9.10;75.50
48551;DHT22;34397;51.176;6.738;2024-01-30T10:08:42;9.10;75.40
48551;DHT22;34397;51.176;6.738;2024-01-30T10:11:14;9.20;75.10
48551;DHT22;34397;51.176;6.738;2024-01-30T10:13:47;9.20;74.70
48551;DHT22;34397;51.176;6.738;2024-01-30T10:16:19;9.20;74.30
48551;DHT22;34397;51.176;6.738;2024-01-30T10:18:51;9.30;74.50
48551;DHT22;34397;51.176;6.738;2024-01-30T10:21:23;9.30;74.50
48551;DHT22;34397;51.176;6.738;2024-01-30T10:23:55;9.30;74.40
48551;DHT22;34397;51.176;6.738;2024-01-30T10:26:27;9.30;74.70
48551;DHT22;34397;51.176;6.738;2024-01-30T10:29:01;9.40;74.60
48551;DHT22;34397;51.176;6.738;2024-01-30T10:31:33;9.40;74.30
48551;DHT22;34397;51.176;6.738;2024-01-30T10:34:05;9.40;74.40
48551;DHT22;34397;51.176;6.738;2024-01-30T10:36:40;9.50;74.00
48551;DHT22;34397;51.176;6.738;2024-01-30T10:39:14;9.50;74.60
48551;DHT22;34397;51.176;6.738;2024-01-30T10:41:48;9.50;74.30
48551;DHT22;34397;51.176;6.738;2024-01-30T10:44:23;9.50;74.40
48551;DHT22;34397;51.176;6.738;2024-01-30T10:47:00;9.60;73.80
48551;DHT22;34397;51.176;6.738;2024-01-30T10:49:35;9.60;73.90
48551;DHT22;34397;51.176;6.738;2024-01-30T10:52:09;9.70;73.70
48551;DHT22;34397;51.176;6.738;2024-01-30T10:54:44;9.70;73.30
48551;DHT22;34397;51.176;6.738;2024-01-30T10:57:17;9.70;73.30
48551;DHT22;34397;51.176;6.738;2024-01-30T10:59:52;9.80;73.20
48551;DHT22;34397;51.176;6.738;2024-01-30T11:02:24;9.80;73.20
48551;DHT22;34397;51.176;6.738;2024-01-30T11:04:58;9.80;73.20
48551;DHT22;34397;51.176;6.738;2024-01-30T11:07:31;9.80;73.30
48551;DHT22;34397;51.176;6.738;2024-01-30T11:10:04;9.90;73.70
48551;DHT22;34397;51.176;6.738;2024-01-30T11:12:40;9.90;73.70
48551;DHT22;34397;51.176;6.738;2024-01-30T11:15:16;9.90;74.10
48551;DHT22;34397;51.176;6.738;2024-01-30T11:17:51;9.90;74.20
48551;DHT22;34397;51.176;6.738;2024-01-30T11:20:26;10.00;74.40
48551;DHT22;34397;51.176;6.738;2024-01-30T11:23:00;10.10;74.60
48551;DHT22;34397;51.176;6.738;2024-01-30T11:25:36;10.10;75.20
48551;DHT22;34397;51.176;6.738;2024-01-30T11:28:13;10.10;74.40
48551;DHT22;34397;51.176;6.738;2024-01-30T11:30:48;10.20;74.40
48551;DHT22;34397;51.176;6.738;2024-01-30T11:33:28;10.20;74.20
48551;DHT22;34397;51.176;6.738;2024-01-30T11:36:01;10.30;74.20
48551;DHT22;34397;51.176;6.738;2024-01-30T11:38:33;10.30;73.90
48551;DHT22;34397;51.176;6.738;2024-01-30T11:41:05;10.30;73.60
48551;DHT22;34397;51.176;6.738;2024-01-30T11:43:38;10.40;73.30
48551;DHT22;34397;51.176;6.738;2024-01-30T11:46:11;10.40;73.60
48551;DHT22;34397;51.176;6.738;2024-01-30T11:48:43;10.40;73.40
48551;DHT22;34397;51.176;6.738;2024-01-30T11:51:15;10.40;73.80
48551;DHT22;34397;51.176;6.738;2024-01-30T11:53:49;10.40;73.70
48551;DHT22;34397;51.176;6.738;2024-01-30T11:56:22;10.40;73.20
48551;DHT22;34397;51.176;6.738;2024-01-30T11:58:55;10.50;73.60
48551;DHT22;34397;51.176;6.738;2024-01-30T12:01:29;10.40;73.90
48551;DHT22;34397;51.176;6.738;2024-01-30T12:04:01;10.40;73.30
48551;DHT22;34397;51.176;6.738;2024-01-30T12:06:33;10.40;73.20
48551;DHT22;34397;51.176;6.738;2024-01-30T12:09:05;10.50;71.30
48551;DHT22;34397;51.176;6.738;2024-01-30T12:11:44;10.40;72.50
48551;DHT22;34397;51.176;6.738;2024-01-30T12:14:17;10.40;74.00
48551;DHT22;34397;51.176;6.738;2024-01-30T12:16:52;10.40;74.20
48551;DHT22;34397;51.176;6.738;2024-01-30T12:19:24;10.40;75.00
48551;DHT22;34397;51.176;6.738;2024-01-30T12:21:56;10.40;75.60
48551;DHT22;34397;51.176;6.738;2024-01-30T12:24:29;10.40;76.50
48551;DHT22;34397;51.176;6.738;2024-01-30T12:27:01;10.50;76.70
48551;DHT22;34397;51.176;6.738;2024-01-30T12:29:33;10.50;77.20
48551;DHT22;34397;51.176;6.738;2024-01-30T12:32:07;10.60;77.60
48551;DHT22;34397;51.176;6.738;2024-01-30T12:34:40;10.60;79.20
48551;DHT22;34397;51.176;6.738;2024-01-30T12:37:13;10.60;79.20
48551;DHT22;34397;51.176;6.738;2024-01-30T12:39:51;10.60;80.10
48551;DHT22;34397;51.176;6.738;2024-01-30T12:42:23;10.60;80.00
48551;DHT22;34397;51.176;6.738;2024-01-30T12:44:57;10.70;79.60
48551;DHT22;34397;51.176;6.738;2024-01-30T12:47:31;10.80;79.80
48551;DHT22;34397;51.176;6.738;2024-01-30T12:50:03;10.80;79.70
48551;DHT22;34397;51.176;6.738;2024-01-30T12:52:35;10.90;79.30
48551;DHT22;34397;51.176;6.738;2024-01-30T12:55:07;11.00;79.40
48551;DHT22;34397;51.176;6.738;2024-01-30T12:57:39;11.00;79.10
48551;DHT22;34397;51.176;6.738;2024-01-30T13:00:12;11.00;79.00
48551;DHT22;34397;51.176;6.738;2024-01-30T13:02:45;11.00;79.00
48551;DHT22;34397;51.176;6.738;2024-01-30T13:05:17;11.00;78.80
48551;DHT22;34397;51.176;6.738;2024-01-30T13:07:49;11.00;78.70
48551;DHT22;34397;51.176;6.738;2024-01-30T13:10:22;11.10;78.50
48551;DHT22;34397;51.176;6.738;2024-01-30T13:12:54;11.10;78.50
48551;DHT22;34397;51.176;6.738;2024-01-30T13:15:26;11.10;78.50
48551;DHT22;34397;51.176;6.738;2024-01-30T13:18:02;11.10;78.30
48551;DHT22;34397;51.176;6.738;2024-01-30T13:20:34;11.10;78.20
48551;DHT22;34397;51.176;6.738;2024-01-30T13:23:06;11.20;78.30
48551;DHT22;34397;51.176;6.738;2024-01-30T13:25:37;11.20;78.10
48551;DHT22;34397;51.176;6.738;2024-01-30T13:28:09;11.10;78.10
48551;DHT22;34397;51.176;6.738;2024-01-30T13:30:41;11.10;78.30
48551;DHT22;34397;51.176;6.738;2024-01-30T13:33:14;11.20;78.20
48551;DHT22;34397;51.176;6.738;2024-01-30T13:35:46;11.10;78.20
48551;DHT22;34397;51.176;6.738;2024-01-30T13:38:18;11.20;78.10
48551;DHT22;34397;51.176;6.738;2024-01-30T13:40:51;11.10;78.20
48551;DHT22;34397;51.176;6.738;2024-01-30T13:43:22;11.10;78.40
48551;DHT22;34397;51.176;6.738;2024-01-30T13:45:54;11.10;78.40
48551;DHT22;34397;51.176;6.738;2024-01-30T13:48:27;11.20;78.20
48551;DHT22;34397;51.176;6.738;2024-01-30T13:51:00;11.20;78.30
48551;DHT22;34397;51.176;6.738;2024-01-30T13:53:32;11.10;78.10
48551;DHT22;34397;51.176;6.738;2024-01-30T13:56:04;11.20;78.30
48551;DHT22;34397;51.176;6.738;2024-01-30T13:58:37;11.20;78.30
48551;DHT22;34397;51.176;6.738;2024-01-30T14:01:09;11.20;78.30
48551;DHT22;34397;51.176;6.738;2024-01-30T14:03:42;11.30;78.20
48551;DHT22;34397;51.176;6.738;2024-01-30T14:06:14;11.30;78.10
48551;DHT22;34397;51.176;6.738;2024-01-30T14:08:46;11.30;78.10
48551;DHT22;34397;51.176;6.738;2024-01-30T14:11:18;11.40;78.10
48551;DHT22;34397;51.176;6.738;2024-01-30T14:13:49;11.40;77.90
48551;DHT22;34397;51.176;6.738;2024-01-30T14:16:21;11.40;77.60
48551;DHT22;34397;51.176;6.738;2024-01-30T14:18:56;11.40;77.60
48551;DHT22;34397;51.176;6.738;2024-01-30T14:21:28;11.40;77.30
48551;DHT22;34397;51.176;6.738;2024-01-30T14:23:59;11.40;77.70
48551;DHT22;34397;51.176;6.738;2024-01-30T14:26:31;11.40;78.00
48551;DHT22;34397;51.176;6.738;2024-01-30T14:29:03;11.50;78.10
48551;DHT22;34397;51.176;6.738;2024-01-30T14:31:35;11.60;77.90
48551;DHT22;34397;51.176;6.738;2024-01-30T14:34:08;11.60;77.20
48551;DHT22;34397;51.176;6.738;2024-01-30T14:36:41;11.70;76.70
48551;DHT22;34397;51.176;6.738;2024-01-30T14:39:13;11.80;76.40
48551;DHT22;34397;51.176;6.738;2024-01-30T14:41:45;11.70;76.30
48551;DHT22;34397;51.176;6.738;2024-01-30T14:44:17;11.70;76.30
48551;DHT22;34397;51.176;6.738;2024-01-30T14:46:49;11.70;76.30
48551;DHT22;34397;51.176;6.738;2024-01-30T14:49:22;11.70;76.40
48551;DHT22;34397;51.176;6.738;2024-01-30T14:51:54;11.70;76.20
48551;DHT22;34397;51.176;6.738;2024-01-30T14:54:25;11.70;76.50
48551;DHT22;34397;51.176;6.738;2024-01-30T14:56:58;11.70;76.50
48551;DHT22;34397;51.176;6.738;2024-01-30T14:59:31;11.70;76.30
48551;DHT22;34397;51.176;6.738;2024-01-30T15:02:04;11.60;76.30
48551;DHT22;34397;51.176;6.738;2024-01-30T15:04:37;11.60;76.10
48551;DHT22;34397;51.176;6.738;2024-01-30T15:07:09;11.40;76.30
48551;DHT22;34397;51.176;6.738;2024-01-30T15:09:41;11.50;76.00
48551;DHT22;34397;51.176;6.738;2024-01-30T15:12:13;11.50;75.70
48551;DHT22;34397;51.176;6.738;2024-01-30T15:14:45;11.40;74.90
48551;DHT22;34397;51.176;6.738;2024-01-30T15:17:21;11.40;74.60
48551;DHT22;34397;51.176;6.738;2024-01-30T15:19:54;11.20;73.90
48551;DHT22;34397;51.176;6.738;2024-01-30T15:22:26;11.20;74.60
48551;DHT22;34397;51.176;6.738;2024-01-30T15:24:58;11.20;74.20
48551;DHT22;34397;51.176;6.738;2024-01-30T15:27:29;11.10;73.50
48551;DHT22;34397;51.176;6.738;2024-01-30T15:30:02;11.10;73.00
48551;DHT22;34397;51.176;6.738;2024-01-30T15:32:34;11.10;73.10
48551;DHT22;34397;51.176;6.738;2024-01-30T15:35:08;10.90;71.80
48551;DHT22;34397;51.176;6.738;2024-01-30T15:37:40;10.80;72.00
48551;DHT22;34397;51.176;6.738;2024-01-30T15:40:11;10.60;72.70
48551;DHT22;34397;51.176;6.738;2024-01-30T15:42:44;10.50;72.90
48551;DHT22;34397;51.176;6.738;2024-01-30T15:45:15;10.30;73.20
48551;DHT22;34397;51.176;6.738;2024-01-30T15:47:47;10.30;73.60
48551;DHT22;34397;51.176;6.738;2024-01-30T15:50:21;10.30;74.00
48551;DHT22;34397;51.176;6.738;2024-01-30T15:52:53;10.30;73.60
48551;DHT22;34397;51.176;6.738;2024-01-30T15:55:24;10.20;73.90
48551;DHT22;34397;51.176;6.738;2024-01-30T15:57:56;10.20;74.00
48551;DHT22;34397;51.176;6.738;2024-01-30T16:00:28;10.20;73.80
48551;DHT22;34397;51.176;6.738;2024-01-30T16:03:00;10.30;73.60
48551;DHT22;34397;51.176;6.738;2024-01-30T16:05:33;10.30;72.60
48551;DHT22;34397;51.176;6.738;2024-01-30T16:08:05;10.30;72.30
48551;DHT22;34397;51.176;6.738;2024-01-30T16:10:37;10.40;72.20
48551;DHT22;34397;51.176;6.738;2024-01-30T16:13:09;10.40;71.40
48551;DHT22;34397;51.176;6.738;2024-01-30T16:15:41;10.40;70.90